Time;durP1;ratioP1;P1;durP2;ratioP2;P2;SDS_P1;SDS_P2;PMS_P1;PMS_P2;Temp;Humidity;BMP_temperature;BMP_pressure;BME280_temperature;BME280_humidity;BME280_pressure;Samples;Min_cycle;Max_cycle;Signal;HPM_P1;HPM_P2
2022/04/16 00:02:14;;;;;;;27.50;17.35;;;8.00;99.90;;;;;;5033343;28;20206;-59
2022/04/16 00:04:42;;;;;;;26.52;15.93;;;8.10;99.90;;;;;;5033290;28;20198;-59
2022/04/16 00:07:11;;;;;;;25.88;16.17;;;8.00;99.90;;;;;;5032931;28;20211;-60
2022/04/16 00:09:38;;;;;;;21.25;14.60;;;8.10;99.90;;;;;;5033028;28;20198;-60
2022/04/16 00:12:06;;;;;;;26.77;16.02;;;8.00;99.90;;;;;;5032869;28;20205;-60
2022/04/16 00:14:36;;;;;;;27.42;15.15;;;8.00;99.90;;;;;;5032691;28;20229;-60
2022/04/16 00:17:03;;;;;;;27.90;16.77;;;8.00;99.90;;;;;;5033503;28;20198;-60
2022/04/16 00:19:31;;;;;;;24.77;15.38;;;8.00;99.90;;;;;;5032832;28;20210;-60
2022/04/16 00:22:00;;;;;;;28.83;17.48;;;7.90;99.90;;;;;;5033099;28;20210;-60
2022/04/16 00:24:28;;;;;;;26.52;17.23;;;7.90;99.90;;;;;;5033207;28;20702;-60
2022/04/16 00:26:55;;;;;;;30.50;16.23;;;7.90;99.90;;;;;;5037129;28;20319;-59
2022/04/16 00:29:23;;;;;;;31.70;16.00;;;7.90;99.90;;;;;;5037091;28;20202;-60
2022/04/16 00:31:50;;;;;;;20.52;14.45;;;7.80;99.90;;;;;;5037346;28;20226;-59
2022/04/16 00:34:19;;;;;;;26.05;17.00;;;7.80;99.90;;;;;;5037264;28;20229;-59
2022/04/16 00:36:47;;;;;;;25.00;16.15;;;7.70;99.90;;;;;;5037153;28;20199;-59
2022/04/16 00:39:14;;;;;;;29.33;15.52;;;7.70;99.90;;;;;;5036607;28;20682;-59
2022/04/16 00:41:43;;;;;;;24.92;16.27;;;7.70;99.90;;;;;;5036719;28;20206;-60
2022/04/16 00:44:10;;;;;;;26.00;15.55;;;7.70;99.90;;;;;;5036965;28;20226;-59
2022/04/16 00:46:37;;;;;;;24.65;14.50;;;7.60;99.90;;;;;;5036749;28;20230;-60
2022/04/16 00:49:04;;;;;;;26.90;13.88;;;7.60;99.90;;;;;;5036383;28;20256;-59
2022/04/16 00:51:32;;;;;;;29.83;14.02;;;7.60;99.90;;;;;;5037305;28;20202;-59
2022/04/16 00:53:59;;;;;;;24.40;12.07;;;7.60;99.90;;;;;;5036311;28;20222;-59
2022/04/16 00:56:26;;;;;;;20.05;11.98;;;7.60;99.90;;;;;;5036474;28;20202;-60
2022/04/16 00:58:55;;;;;;;22.13;13.07;;;7.60;99.90;;;;;;5036554;28;20210;-60
2022/04/16 01:01:22;;;;;;;16.35;10.75;;;7.50;99.90;;;;;;5036780;28;20198;-60
2022/04/16 01:03:49;;;;;;;15.15;10.40;;;7.50;99.90;;;;;;5036822;28;20592;-60
2022/04/16 01:06:17;;;;;;;17.38;10.80;;;7.50;99.90;;;;;;5036381;28;20724;-59
2022/04/16 01:08:45;;;;;;;17.27;11.13;;;7.50;99.90;;;;;;5036526;28;20233;-60
2022/04/16 01:11:12;;;;;;;16.55;10.02;;;7.40;99.90;;;;;;5036277;28;20236;-59
2022/04/16 01:13:40;;;;;;;14.10;8.98;;;7.40;99.90;;;;;;5036365;28;20218;-58
2022/04/16 01:16:08;;;;;;;14.32;9.00;;;7.40;99.90;;;;;;5036516;28;20202;-60
2022/04/16 01:18:36;;;;;;;13.35;10.00;;;7.40;99.90;;;;;;5036426;28;20213;-60
2022/04/16 01:21:04;;;;;;;11.65;9.07;;;7.40;99.90;;;;;;5036085;28;20713;-60
2022/04/16 01:23:32;;;;;;;12.15;7.35;;;7.40;99.90;;;;;;5035958;28;20702;-59
2022/04/16 01:25:59;;;;;;;12.05;7.28;;;7.40;99.90;;;;;;5036329;28;20203;-60
2022/04/16 01:28:27;;;;;;;11.18;7.63;;;7.40;99.90;;;;;;5035996;28;20209;-60
2022/04/16 01:30:54;;;;;;;10.98;7.55;;;7.30;99.90;;;;;;5035996;28;20234;-60
2022/04/16 01:33:22;;;;;;;9.68;7.20;;;7.30;99.90;;;;;;5035854;28;20223;-60
2022/04/16 01:35:53;;;;;;;12.40;7.60;;;7.30;99.90;;;;;;5035204;28;20222;-59
2022/04/16 01:38:20;;;;;;;10.48;6.43;;;7.20;99.90;;;;;;5035679;28;20189;-59
2022/04/16 01:40:48;;;;;;;12.95;6.32;;;7.20;99.90;;;;;;5035496;28;20202;-59
2022/04/16 01:43:15;;;;;;;8.68;5.70;;;7.20;99.90;;;;;;5035651;28;20588;-60
2022/04/16 01:45:42;;;;;;;9.27;5.95;;;7.10;99.90;;;;;;5035297;28;20198;-59
2022/04/16 01:48:13;;;;;;;9.98;6.07;;;7.00;99.90;;;;;;5035652;28;20313;-59
2022/04/16 01:50:40;;;;;;;7.65;5.57;;;7.00;99.90;;;;;;5035634;28;20611;-59
2022/04/16 01:53:07;;;;;;;7.63;5.57;;;7.00;99.90;;;;;;5035705;28;20287;-59
2022/04/16 01:55:34;;;;;;;6.20;5.13;;;6.90;99.90;;;;;;5035168;28;20225;-60
2022/04/16 01:58:03;;;;;;;5.30;4.63;;;6.90;99.90;;;;;;5035315;28;20206;-60
2022/04/16 02:00:30;;;;;;;9.15;4.97;;;6.80;99.90;;;;;;5035591;28;20237;-60
2022/04/16 02:02:58;;;;;;;9.73;5.78;;;6.80;99.90;;;;;;5035395;28;20226;-60
2022/04/16 02:05:25;;;;;;;6.55;4.80;;;6.70;99.90;;;;;;5035154;28;20705;-60
2022/04/16 02:07:52;;;;;;;7.38;5.20;;;6.70;99.90;;;;;;5035069;28;20202;-60
2022/04/16 02:10:19;;;;;;;4.70;4.18;;;6.70;99.90;;;;;;5035119;28;20213;-60
2022/04/16 02:12:46;;;;;;;4.65;4.25;;;6.60;99.90;;;;;;5035193;28;20297;-60
2022/04/16 02:15:15;;;;;;;7.18;4.47;;;6.60;99.90;;;;;;5034947;28;20218;-60
2022/04/16 02:17:42;;;;;;;7.95;4.20;;;6.60;99.90;;;;;;5034711;28;20203;-59
2022/04/16 02:20:11;;;;;;;4.55;3.95;;;6.50;99.90;;;;;;5035110;28;20202;-60
2022/04/16 02:22:42;;;;;;;6.82;4.20;;;6.40;99.90;;;;;;5034511;28;20237;-60
2022/04/16 02:25:10;;;;;;;8.55;3.60;;;6.30;99.90;;;;;;5034998;28;20198;-60
2022/04/16 02:27:38;;;;;;;3.85;3.20;;;6.20;99.90;;;;;;5034876;28;20571;-59
2022/04/16 02:30:05;;;;;;;5.15;3.95;;;6.10;99.90;;;;;;5034966;28;20203;-60
2022/04/16 02:32:38;;;;;;;5.60;3.58;;;6.00;99.90;;;;;;5034843;28;20233;-59
2022/04/16 02:35:06;;;;;;;5.03;3.50;;;5.90;99.90;;;;;;5035734;28;20612;-59
2022/04/16 02:37:33;;;;;;;7.18;3.70;;;5.80;99.90;;;;;;5034719;28;20229;-60
2022/04/16 02:40:00;;;;;;;6.97;2.95;;;5.70;99.90;;;;;;5034415;28;20202;-60
2022/04/16 02:42:27;;;;;;;3.80;3.40;;;5.60;99.90;;;;;;5034425;28;20203;-60
2022/04/16 02:47:39;;;;;;;3.70;2.80;;;5.40;99.90;;;;;;5034035;28;20289;-59
2022/04/16 02:50:07;;;;;;;6.43;2.85;;;5.30;99.90;;;;;;5033845;28;20198;-59
2022/04/16 02:52:36;;;;;;;3.50;3.08;;;5.20;99.90;;;;;;5034327;28;20218;-60
2022/04/16 02:55:03;;;;;;;3.22;2.92;;;5.10;99.90;;;;;;5036115;28;20230;-60
2022/04/16 02:57:30;;;;;;;3.15;2.50;;;5.00;99.90;;;;;;5034732;28;20640;-60
2022/04/16 02:59:57;;;;;;;3.72;3.13;;;5.00;99.90;;;;;;5034221;28;20209;-59
2022/04/16 03:02:25;;;;;;;4.15;3.47;;;4.90;99.90;;;;;;5034332;28;20210;-59
2022/04/16 03:04:54;;;;;;;4.80;3.60;;;4.80;99.90;;;;;;5033900;28;20202;-60
2022/04/16 03:07:21;;;;;;;3.67;3.38;;;4.80;99.90;;;;;;5034134;28;20208;-60
2022/04/16 03:09:48;;;;;;;5.13;3.47;;;4.70;99.90;;;;;;5033865;28;20697;-59
2022/04/16 03:12:15;;;;;;;4.40;3.60;;;4.60;99.90;;;;;;5034014;28;20210;-59
2022/04/16 03:17:32;;;;;;;3.40;3.10;;;4.50;99.90;;;;;;5034050;28;20182;-59
2022/04/16 03:20:04;;;;;;;3.60;3.30;;;4.50;99.90;;;;;;5033600;28;20595;-59
2022/04/16 03:25:07;;;;;;;3.75;3.13;;;4.30;99.90;;;;;;5058425;22;20241;-60
2022/04/16 03:27:34;;;;;;;5.53;4.03;;;4.20;99.90;;;;;;5037117;28;20206;-60
2022/04/16 03:30:01;;;;;;;4.72;3.83;;;4.20;99.90;;;;;;5035271;28;20199;-60
2022/04/16 03:32:28;;;;;;;4.07;3.67;;;4.20;99.90;;;;;;5038151;28;20205;-59
2022/04/16 03:34:56;;;;;;;3.45;3.00;;;4.10;99.90;;;;;;5042315;28;20229;-60
2022/04/16 03:37:27;;;;;;;3.83;3.15;;;4.00;99.90;;;;;;5043226;28;20269;-60
2022/04/16 03:39:54;;;;;;;3.83;3.25;;;4.00;99.90;;;;;;5044117;28;20651;-60
2022/04/16 03:42:21;;;;;;;3.25;2.95;;;4.00;99.90;;;;;;5045501;28;20203;-60
2022/04/16 03:44:48;;;;;;;4.22;3.38;;;3.90;99.90;;;;;;5045685;28;20347;-59
2022/04/16 03:47:15;;;;;;;4.47;3.22;;;3.90;99.90;;;;;;5036773;28;20203;-60
2022/04/16 03:49:43;;;;;;;4.07;3.50;;;3.80;99.90;;;;;;5033433;28;20203;-60
2022/04/16 03:52:10;;;;;;;4.88;3.63;;;3.80;99.90;;;;;;5033792;28;20237;-61
2022/04/16 04:00:08;;;;;;;4.45;4.03;;;3.60;99.90;;;;;;5033091;28;20183;-59
2022/04/16 04:02:36;;;;;;;4.25;3.85;;;3.60;99.90;;;;;;5033365;28;20213;-60
2022/04/16 04:05:04;;;;;;;8.40;4.93;;;3.50;99.90;;;;;;5033364;28;20276;-60
2022/04/16 04:09:39;;;;;;;5.00;4.57;;;3.40;99.90;;;;;;5111695;27;20536;-60
2022/04/16 04:12:10;;;;;;;5.70;4.20;;;3.40;99.90;;;;;;5110810;28;20203;-60
2022/04/16 04:14:39;;;;;;;7.07;4.32;;;3.30;99.90;;;;;;5111048;28;20250;-60
2022/04/16 04:17:07;;;;;;;5.30;4.88;;;3.30;99.90;;;;;;5110953;28;20238;-60
2022/04/16 04:19:36;;;;;;;4.90;4.25;;;3.30;99.90;;;;;;5110784;28;20196;-59
2022/04/16 04:22:03;;;;;;;10.35;4.80;;;3.20;99.90;;;;;;5111474;28;20231;-60
2022/04/16 04:24:30;;;;;;;7.78;5.95;;;3.20;99.90;;;;;;5111348;28;20224;-59
2022/04/16 04:27:00;;;;;;;5.00;4.50;;;3.20;99.90;;;;;;5111278;28;20203;-59
2022/04/16 04:29:28;;;;;;;7.35;5.15;;;3.10;99.90;;;;;;5111189;28;20247;-60
2022/04/16 04:31:55;;;;;;;7.95;5.50;;;3.10;99.90;;;;;;5111196;28;20206;-60
2022/04/16 04:34:23;;;;;;;6.82;5.05;;;3.10;99.90;;;;;;5111500;28;20231;-60
2022/04/16 04:36:50;;;;;;;5.93;4.65;;;3.20;99.90;;;;;;5111055;28;20199;-59
2022/04/16 04:39:17;;;;;;;5.15;4.30;;;3.30;99.90;;;;;;5110762;28;20200;-60
2022/04/16 04:41:45;;;;;;;7.53;5.00;;;3.30;99.90;;;;;;5110822;28;20207;-59
2022/04/16 04:44:14;;;;;;;4.93;4.40;;;3.40;99.90;;;;;;5117224;28;20215;-59
2022/04/16 04:46:41;;;;;;;5.80;4.22;;;3.50;99.90;;;;;;5120086;28;20204;-60
2022/04/16 04:49:08;;;;;;;6.05;4.88;;;3.60;99.90;;;;;;5117396;28;20212;-59
2022/04/16 04:51:36;;;;;;;4.70;3.70;;;3.80;99.90;;;;;;5115313;28;20207;-60
2022/04/16 04:54:03;;;;;;;4.55;3.88;;;3.90;99.90;;;;;;5112060;28;20220;-60
2022/04/16 04:56:30;;;;;;;6.05;4.75;;;3.90;99.90;;;;;;5110253;28;20200;-61
2022/04/16 04:58:58;;;;;;;5.50;3.90;;;4.00;99.90;;;;;;5112592;28;20199;-60
2022/04/16 05:01:26;;;;;;;7.18;4.35;;;4.10;99.90;;;;;;5120181;28;20204;-59
2022/04/16 05:03:54;;;;;;;4.68;4.10;;;4.10;99.90;;;;;;5116773;28;20228;-60
2022/04/16 05:06:21;;;;;;;4.93;3.70;;;4.20;99.90;;;;;;5115036;28;20207;-60
2022/04/16 05:08:48;;;;;;;4.82;3.40;;;4.20;99.90;;;;;;5112776;28;20220;-60
2022/04/16 05:11:15;;;;;;;4.78;3.90;;;4.30;99.90;;;;;;5110790;28;20200;-60
2022/04/16 05:13:42;;;;;;;7.53;4.30;;;4.40;99.90;;;;;;5110342;28;20220;-60
2022/04/16 05:16:10;;;;;;;4.65;4.03;;;4.40;99.90;;;;;;5109677;28;20674;-60
2022/04/16 05:18:39;;;;;;;5.32;4.47;;;4.40;99.90;;;;;;5109850;28;20268;-61
2022/04/16 05:21:06;;;;;;;4.93;4.25;;;4.40;99.90;;;;;;5095844;28;20216;-60
2022/04/16 05:23:33;;;;;;;6.13;3.80;;;4.30;99.90;;;;;;5096180;28;20228;-59
2022/04/16 05:26:00;;;;;;;5.15;4.65;;;4.20;99.90;;;;;;5095867;28;20212;-60
2022/04/16 05:28:27;;;;;;;4.82;4.32;;;4.10;99.90;;;;;;5096164;28;20228;-60
2022/04/16 05:30:58;;;;;;;5.30;4.68;;;4.00;99.90;;;;;;5096116;28;20203;-60
2022/04/16 05:36:11;;;;;;;5.65;4.10;;;3.80;99.90;;;;;;5096144;28;20552;-60
2022/04/16 05:38:38;;;;;;;4.15;3.47;;;3.80;99.90;;;;;;5095716;28;20614;-60
2022/04/16 05:41:05;;;;;;;5.53;4.32;;;3.80;99.90;;;;;;5095804;28;20203;-59
2022/04/16 05:43:33;;;;;;;4.95;3.90;;;3.80;99.90;;;;;;5095915;28;20231;-60
2022/04/16 05:46:00;;;;;;;7.63;3.60;;;3.80;99.90;;;;;;5095659;28;20664;-60
2022/04/16 05:48:27;;;;;;;4.97;4.35;;;3.80;99.90;;;;;;5096002;28;20263;-60
2022/04/16 05:50:55;;;;;;;4.30;3.90;;;3.80;99.90;;;;;;5095378;28;20207;-61
2022/04/16 05:53:23;;;;;;;5.93;3.65;;;3.90;99.90;;;;;;5095631;28;20228;-60
2022/04/16 05:55:52;;;;;;;6.72;3.50;;;3.90;99.90;;;;;;5095597;28;20201;-60
2022/04/16 05:58:19;;;;;;;4.20;3.80;;;4.00;99.90;;;;;;5095765;28;20223;-60
2022/04/16 06:00:46;;;;;;;4.90;3.17;;;4.10;99.90;;;;;;5095620;28;20204;-60
2022/04/16 06:03:13;;;;;;;6.10;3.75;;;4.10;99.90;;;;;;5095228;28;20228;-60
2022/04/16 06:05:40;;;;;;;8.73;4.05;;;4.20;99.90;;;;;;5095580;28;20204;-60
2022/04/16 06:08:08;;;;;;;6.03;3.55;;;4.30;99.90;;;;;;5095349;28;20224;-60
2022/04/16 06:10:37;;;;;;;3.60;3.30;;;4.30;99.90;;;;;;5095415;28;20213;-60
2022/04/16 06:13:05;;;;;;;7.40;3.63;;;4.40;99.90;;;;;;5095001;28;20273;-61
2022/04/16 06:15:33;;;;;;;5.57;3.35;;;4.50;99.90;;;;;;5095146;28;20197;-60
2022/04/16 06:18:00;;;;;;;9.27;3.70;;;4.50;99.90;;;;;;5095139;28;20236;-60
2022/04/16 06:20:27;;;;;;;5.65;3.55;;;4.60;99.90;;;;;;5095784;28;20212;-60
2022/04/16 06:22:54;;;;;;;6.18;3.80;;;4.70;99.90;;;;;;5095480;28;20211;-60
2022/04/16 06:25:22;;;;;;;4.85;3.10;;;4.80;99.90;;;;;;5095092;28;20639;-59
2022/04/16 06:27:51;;;;;;;5.20;3.38;;;4.90;99.90;;;;;;5094972;28;20239;-60
2022/04/16 06:30:18;;;;;;;4.10;2.92;;;5.00;99.90;;;;;;5095110;28;20306;-60
2022/04/16 06:32:45;;;;;;;6.40;3.20;;;5.10;99.90;;;;;;5094330;28;20203;-60
2022/04/16 06:35:12;;;;;;;4.20;3.10;;;5.20;99.90;;;;;;5094950;28;20204;-60
2022/04/16 06:37:41;;;;;;;5.80;2.50;;;5.30;99.90;;;;;;5094895;28;20215;-60
2022/04/16 06:40:10;;;;;;;4.90;3.60;;;5.40;99.90;;;;;;5094456;28;20235;-59
2022/04/16 06:42:37;;;;;;;5.80;3.50;;;5.40;99.90;;;;;;5094816;28;20204;-59
2022/04/16 06:45:08;;;;;;;3.80;3.00;;;5.50;99.70;;;;;;5096169;28;20227;-60
2022/04/16 06:47:36;;;;;;;4.78;3.03;;;5.60;99.40;;;;;;5101578;28;20196;-60
2022/04/16 06:50:04;;;;;;;3.70;3.40;;;5.70;98.90;;;;;;5102102;28;20726;-60
2022/04/16 06:52:31;;;;;;;5.35;2.72;;;5.80;98.60;;;;;;5102511;28;20200;-59
2022/04/16 06:54:59;;;;;;;3.90;3.55;;;5.90;98.30;;;;;;5100286;28;20246;-60
2022/04/16 06:57:26;;;;;;;5.28;3.03;;;6.00;97.80;;;;;;5100901;28;20291;-60
2022/04/16 06:59:53;;;;;;;5.35;2.55;;;6.20;97.40;;;;;;5101816;28;20595;-59
2022/04/16 07:02:21;;;;;;;6.63;2.83;;;6.20;96.60;;;;;;5100220;28;20208;-61
2022/04/16 07:04:48;;;;;;;6.95;2.80;;;6.30;96.10;;;;;;5101051;28;20223;-61
2022/04/16 07:07:15;;;;;;;3.60;2.75;;;6.30;95.80;;;;;;5100381;28;20200;-60
2022/04/16 07:09:42;;;;;;;3.75;3.35;;;6.40;95.50;;;;;;5099442;28;20215;-59
2022/04/16 07:12:10;;;;;;;4.13;3.35;;;6.40;94.90;;;;;;5097581;28;20314;-59
2022/04/16 07:14:38;;;;;;;5.63;4.05;;;6.40;94.20;;;;;;5096816;28;20220;-59
2022/04/16 07:17:06;;;;;;;4.60;3.15;;;6.50;93.80;;;;;;5097303;28;20205;-59
2022/04/16 07:19:35;;;;;;;5.35;3.22;;;6.50;93.20;;;;;;5096602;28;20203;-60
2022/04/16 07:22:02;;;;;;;4.03;3.38;;;6.50;92.70;;;;;;5096384;28;20207;-60
2022/04/16 07:24:29;;;;;;;5.18;3.47;;;6.50;92.50;;;;;;5095266;28;20692;-60
2022/04/16 07:26:57;;;;;;;4.22;3.53;;;6.50;92.30;;;;;;5094508;28;20201;-59
2022/04/16 07:29:25;;;;;;;5.30;3.03;;;6.60;92.10;;;;;;5094130;28;20216;-60
2022/04/16 07:31:52;;;;;;;3.17;2.88;;;6.70;91.80;;;;;;5094707;28;20207;-60
2022/04/16 07:34:20;;;;;;;2.83;2.55;;;6.80;91.50;;;;;;5094217;28;20220;-60
2022/04/16 07:36:49;;;;;;;3.35;2.25;;;6.90;91.10;;;;;;5094874;28;20197;-60
2022/04/16 07:39:17;;;;;;;2.75;2.25;;;6.90;90.60;;;;;;5095276;28;20191;-60
2022/04/16 07:41:44;;;;;;;3.60;2.75;;;7.00;90.30;;;;;;5094281;28;20222;-60
2022/04/16 07:44:11;;;;;;;2.95;2.35;;;7.10;89.90;;;;;;5093922;28;20223;-60
2022/04/16 07:46:38;;;;;;;3.88;2.67;;;7.10;88.30;;;;;;5094178;28;20204;-61
2022/04/16 07:49:05;;;;;;;5.20;2.25;;;7.10;86.60;;;;;;5093682;28;20215;-60
2022/04/16 07:51:33;;;;;;;3.67;2.65;;;7.20;85.90;;;;;;5094160;28;20207;-60
2022/04/16 07:54:01;;;;;;;3.10;2.13;;;7.30;85.60;;;;;;5094177;28;20249;-60
2022/04/16 07:56:28;;;;;;;4.85;2.70;;;7.30;84.80;;;;;;5094587;28;20699;-60
2022/04/16 07:58:56;;;;;;;3.25;2.17;;;7.40;83.80;;;;;;5093141;28;20199;-59
2022/04/16 08:01:23;;;;;;;4.35;2.55;;;7.50;83.50;;;;;;5093154;28;20207;-60
2022/04/16 08:03:50;;;;;;;3.78;2.40;;;7.60;83.40;;;;;;5093279;28;20220;-59
2022/04/16 08:06:17;;;;;;;3.88;2.40;;;7.80;83.20;;;;;;5093239;28;20223;-60
2022/04/16 08:08:44;;;;;;;3.65;2.05;;;7.80;81.70;;;;;;5093020;28;20224;-60
2022/04/16 08:11:13;;;;;;;1.98;1.83;;;7.80;79.30;;;;;;5093438;28;20208;-60
2022/04/16 08:13:40;;;;;;;4.05;1.90;;;7.80;78.30;;;;;;5093055;28;20628;-60
2022/04/16 08:16:07;;;;;;;1.70;1.42;;;7.80;77.30;;;;;;5093636;28;20207;-60
2022/04/16 08:18:34;;;;;;;3.05;2.00;;;7.90;76.70;;;;;;5093510;28;20201;-60
2022/04/16 08:21:02;;;;;;;3.22;2.00;;;7.90;76.10;;;;;;5093290;28;20215;-60
2022/04/16 08:23:29;;;;;;;3.88;2.15;;;8.00;75.60;;;;;;5092826;28;20262;-60
2022/04/16 08:25:56;;;;;;;3.38;2.42;;;8.20;75.10;;;;;;5093218;28;20253;-60
2022/04/16 08:28:25;;;;;;;2.53;2.08;;;8.40;74.90;;;;;;5093181;28;20204;-61
2022/04/16 08:30:54;;;;;;;6.10;2.65;;;8.50;74.20;;;;;;5093152;28;20724;-59
2022/04/16 08:33:21;;;;;;;4.10;2.10;;;8.70;73.20;;;;;;5093645;28;20304;-60
2022/04/16 08:35:49;;;;;;;2.90;2.00;;;8.90;72.20;;;;;;5092837;28;20243;-59
2022/04/16 08:38:16;;;;;;;5.82;2.70;;;9.00;71.20;;;;;;5092804;28;20669;-59
2022/04/16 08:40:43;;;;;;;5.90;2.88;;;9.10;70.20;;;;;;5092845;28;20690;-60
2022/04/16 08:43:11;;;;;;;1.90;1.70;;;9.10;69.60;;;;;;5102548;28;20227;-60
2022/04/16 08:45:40;;;;;;;3.40;2.33;;;9.20;68.70;;;;;;5108552;28;20216;-61
2022/04/16 08:48:07;;;;;;;4.32;2.25;;;9.30;68.00;;;;;;5108779;28;20204;-60
2022/04/16 08:50:35;;;;;;;3.05;2.10;;;9.40;66.70;;;;;;5109691;28;20212;-60
2022/04/16 08:53:02;;;;;;;3.25;2.13;;;9.40;65.60;;;;;;5099417;28;20220;-60
2022/04/16 08:55:30;;;;;;;2.88;2.20;;;9.30;64.50;;;;;;5095117;28;20204;-59
2022/04/16 08:57:57;;;;;;;2.58;1.77;;;9.20;63.90;;;;;;5096808;28;20200;-61
2022/04/16 09:00:25;;;;;;;4.15;2.50;;;9.00;64.30;;;;;;5096965;28;20203;-59
2022/04/16 09:02:56;;;;;;;5.18;1.73;;;9.10;64.60;;;;;;5096889;28;20207;-60
2022/04/16 09:05:26;;;;;;;3.97;1.83;;;9.20;64.80;;;;;;5096736;28;20219;-59
2022/04/16 09:07:55;;;;;;;4.38;2.00;;;9.40;64.10;;;;;;5096060;28;20306;-60
2022/04/16 09:10:25;;;;;;;4.00;1.98;;;9.60;62.20;;;;;;5096085;28;20224;-60
2022/04/16 09:12:53;;;;;;;2.95;1.80;;;9.60;61.20;;;;;;5096230;28;20208;-60
2022/04/16 09:15:20;;;;;;;2.20;1.65;;;9.80;61.30;;;;;;5095984;28;20247;-59
2022/04/16 09:17:59;;;;;;;1.95;1.70;;;9.80;60.60;;;;;;5096261;28;20204;-60
2022/04/16 09:20:35;;;;;;;2.92;1.90;;;9.90;60.30;;;;;;5096185;28;20185;-60
2022/04/16 09:23:03;;;;;;;1.92;1.50;;;10.00;59.10;;;;;;5096185;28;20231;-61
2022/04/16 09:25:31;;;;;;;2.10;1.80;;;10.00;57.50;;;;;;5081067;22;20265;-57
2022/04/16 09:28:05;;;;;;;8.23;1.52;;;10.00;56.50;;;;;;5037016;28;20206;-56
2022/04/16 09:30:33;;;;;;;2.13;1.30;;;10.00;55.90;;;;;;5036402;28;20210;-56
2022/04/16 09:33:02;;;;;;;2.17;1.60;;;10.00;55.40;;;;;;5036666;28;20554;-56
2022/04/16 09:35:31;;;;;;;3.28;1.60;;;10.00;54.70;;;;;;5036478;28;20229;-56
2022/04/16 09:37:59;;;;;;;1.90;1.70;;;10.00;54.20;;;;;;5036412;28;20253;-56
2022/04/16 09:40:27;;;;;;;2.03;1.70;;;10.00;54.40;;;;;;5036422;28;20659;-56
2022/04/16 09:42:55;;;;;;;1.60;1.50;;;10.10;54.20;;;;;;5036177;28;20589;-57
2022/04/16 09:45:23;;;;;;;5.35;2.30;;;10.20;54.20;;;;;;5036289;28;20241;-57
2022/04/16 09:47:51;;;;;;;1.77;1.40;;;10.30;53.50;;;;;;5036394;28;20209;-57
2022/04/16 09:50:21;;;;;;;1.90;1.60;;;10.40;52.40;;;;;;5035900;28;20477;-57
2022/04/16 09:52:53;;;;;;;3.40;2.40;;;10.50;51.50;;;;;;5036010;28;20461;-57
2022/04/16 09:55:22;;;;;;;2.00;1.25;;;10.50;50.80;;;;;;5035913;28;20465;-58
2022/04/16 09:57:57;;;;;;;2.75;1.33;;;10.50;50.60;;;;;;5035860;28;20689;-57
2022/04/16 10:00:25;;;;;;;2.30;1.20;;;10.60;50.40;;;;;;5036748;28;20186;-57
2022/04/16 10:02:53;;;;;;;2.03;1.50;;;10.70;49.80;;;;;;5036409;28;20452;-57
2022/04/16 10:05:23;;;;;;;1.50;1.40;;;10.70;49.80;;;;;;5035407;28;20473;-58
2022/04/16 10:07:52;;;;;;;1.60;1.50;;;10.70;49.40;;;;;;5035524;28;20964;-57
2022/04/16 10:10:25;;;;;;;1.60;1.50;;;10.80;49.20;;;;;;5035795;28;20485;-56
2022/04/16 10:13:07;;;;;;;2.37;1.63;;;10.80;48.70;;;;;;5035868;28;20442;-57
2022/04/16 10:15:54;;;;;;;1.63;1.03;;;10.90;48.70;;;;;;5035379;28;20461;-57
2022/04/16 10:18:21;;;;;;;1.53;1.40;;;11.00;48.70;;;;;;5035898;28;20798;-57
2022/04/16 10:20:54;;;;;;;2.10;1.50;;;11.20;48.60;;;;;;5035235;28;20453;-57
2022/04/16 10:23:31;;;;;;;2.07;1.70;;;11.40;48.00;;;;;;5035803;28;20441;-58
2022/04/16 10:26:06;;;;;;;1.50;1.00;;;11.50;47.30;;;;;;5036370;28;20756;-57
2022/04/16 10:28:44;;;;;;;1.87;1.40;;;11.50;46.80;;;;;;5036559;28;20479;-57
2022/04/16 10:31:22;;;;;;;1.73;1.63;;;11.50;46.20;;;;;;5036141;28;20492;-57
2022/04/16 10:33:58;;;;;;;2.97;1.60;;;11.50;46.30;;;;;;5036064;28;20468;-58
2022/04/16 10:36:28;;;;;;;1.70;1.60;;;11.50;45.80;;;;;;5035803;28;20444;-57
2022/04/16 10:38:55;;;;;;;2.90;1.60;;;11.50;45.90;;;;;;5035055;28;20437;-56
2022/04/16 10:41:23;;;;;;;2.37;1.70;;;11.40;44.70;;;;;;5036260;28;20452;-57
2022/04/16 10:43:54;;;;;;;5.40;1.60;;;11.40;44.60;;;;;;5035644;28;20461;-57
2022/04/16 10:46:21;;;;;;;2.00;1.40;;;11.50;44.80;;;;;;5035317;28;20449;-57
2022/04/16 10:48:51;;;;;;;1.70;1.60;;;11.60;44.90;;;;;;5034952;28;20456;-57
2022/04/16 10:51:22;;;;;;;1.93;1.73;;;11.70;45.10;;;;;;5034767;28;20516;-57
2022/04/16 10:53:50;;;;;;;3.30;1.50;;;11.90;45.30;;;;;;5035795;28;20477;-57
2022/04/16 10:56:21;;;;;;;2.03;1.40;;;12.00;44.10;;;;;;5036797;28;20485;-57
2022/04/16 10:58:49;;;;;;;1.53;1.30;;;12.10;43.90;;;;;;5036234;28;20542;-58
2022/04/16 11:01:31;;;;;;;2.70;1.50;;;12.20;43.60;;;;;;5036155;28;20445;-57
2022/04/16 11:03:58;;;;;;;2.80;1.73;;;12.20;42.90;;;;;;5036004;28;20465;-57
2022/04/16 11:06:34;;;;;;;1.60;1.50;;;12.40;43.00;;;;;;5035767;28;20463;-57
2022/04/16 11:09:03;;;;;;;1.90;1.50;;;12.40;42.90;;;;;;5035039;28;20425;-57
2022/04/16 11:11:30;;;;;;;1.80;1.57;;;12.50;43.10;;;;;;5035773;28;21035;-56
2022/04/16 11:13:59;;;;;;;3.17;1.77;;;12.50;42.60;;;;;;5035035;28;20574;-56
2022/04/16 11:16:26;;;;;;;1.67;1.57;;;12.50;41.80;;;;;;5034867;28;20449;-56
2022/04/16 11:18:53;;;;;;;3.27;1.83;;;12.50;41.70;;;;;;5035329;28;20449;-57
2022/04/16 11:21:25;;;;;;;2.00;1.70;;;12.40;41.60;;;;;;5035149;28;20937;-57
2022/04/16 11:23:54;;;;;;;2.80;1.83;;;12.20;41.80;;;;;;5034951;28;20465;-57
2022/04/16 11:34:52;;;;;;;1.50;1.40;;;12.90;41.70;;;;;;5025628;28;20468;-56
2022/04/16 11:37:19;;;;;;;1.20;1.10;;;13.10;41.40;;;;;;5034860;28;20434;-57
2022/04/16 11:39:48;;;;;;;2.17;1.30;;;13.10;40.90;;;;;;5035277;28;20453;-57
2022/04/16 11:42:17;;;;;;;1.40;1.30;;;13.10;40.60;;;;;;5034451;28;20448;-57
2022/04/16 11:44:48;;;;;;;2.37;1.30;;;13.20;39.80;;;;;;5034190;28;20468;-57
2022/04/16 11:47:17;;;;;;;3.07;1.53;;;13.40;38.80;;;;;;5034571;28;20890;-57
2022/04/16 11:49:46;;;;;;;1.47;1.10;;;14.00;38.40;;;;;;5034631;28;20868;-57
2022/04/16 11:52:14;;;;;;;2.00;1.70;;;14.50;37.30;;;;;;5034216;28;20507;-57
2022/04/16 11:54:41;;;;;;;1.50;1.10;;;15.00;37.00;;;;;;5034760;28;20460;-57
2022/04/16 11:57:09;;;;;;;1.83;1.43;;;15.60;37.20;;;;;;5034479;28;20464;-57
2022/04/16 11:59:37;;;;;;;1.67;1.20;;;16.20;35.70;;;;;;5034450;28;20453;-57
2022/04/16 12:02:09;;;;;;;2.07;1.40;;;16.60;34.50;;;;;;5034333;28;20934;-56
2022/04/16 12:04:38;;;;;;;1.63;1.13;;;16.80;33.40;;;;;;5034087;28;20985;-56
2022/04/16 12:07:13;;;;;;;1.97;1.27;;;17.10;33.30;;;;;;5034321;28;20487;-58
2022/04/16 12:09:47;;;;;;;2.20;1.33;;;17.40;32.90;;;;;;5034902;28;20432;-56
2022/04/16 12:12:16;;;;;;;2.20;1.20;;;17.60;32.00;;;;;;5035430;28;20948;-57
2022/04/16 12:14:49;;;;;;;2.37;1.20;;;17.80;31.20;;;;;;5035428;28;20465;-56
2022/04/16 12:17:24;;;;;;;1.23;1.00;;;17.90;31.20;;;;;;5035118;28;20456;-58
2022/04/16 12:20:01;;;;;;;1.30;1.20;;;17.90;30.50;;;;;;5036160;28;20445;-56
2022/04/16 12:22:28;;;;;;;1.73;1.10;;;17.40;30.40;;;;;;5034929;28;20428;-57
2022/04/16 12:24:55;;;;;;;3.60;1.53;;;16.90;31.10;;;;;;5034480;28;21014;-57
2022/04/16 12:27:26;;;;;;;1.00;0.90;;;16.50;31.90;;;;;;5035232;28;20460;-57
2022/04/16 12:29:56;;;;;;;1.33;1.10;;;16.10;32.40;;;;;;5035526;28;20476;-57
2022/04/16 12:32:26;;;;;;;2.83;1.40;;;15.60;30.60;;;;;;5039005;28;20448;-57
2022/04/16 12:34:54;;;;;;;1.63;1.23;;;15.00;30.80;;;;;;5038824;28;20518;-57
2022/04/16 12:37:21;;;;;;;1.20;1.00;;;14.60;31.60;;;;;;5038113;28;20452;-57
2022/04/16 12:39:49;;;;;;;1.20;1.10;;;14.30;32.00;;;;;;5038200;28;20543;-57
2022/04/16 12:42:16;;;;;;;1.13;1.03;;;14.30;32.50;;;;;;5037685;28;20480;-57
2022/04/16 12:44:43;;;;;;;1.53;1.43;;;14.30;32.70;;;;;;5037653;28;20578;-57
2022/04/16 12:47:12;;;;;;;1.43;1.30;;;14.40;33.10;;;;;;5037976;28;20447;-57
2022/04/16 12:49:39;;;;;;;1.30;1.00;;;14.50;32.90;;;;;;5037134;28;20455;-57
2022/04/16 12:52:06;;;;;;;2.63;1.50;;;14.50;32.90;;;;;;5037639;28;20484;-56
2022/04/16 12:54:35;;;;;;;2.70;1.10;;;14.50;32.90;;;;;;5037255;28;20508;-57
2022/04/16 12:57:03;;;;;;;2.03;1.30;;;14.40;32.50;;;;;;5037202;28;20564;-57
2022/04/16 12:59:30;;;;;;;2.40;1.20;;;14.40;32.70;;;;;;5036855;28;20952;-57
2022/04/16 13:01:57;;;;;;;2.20;1.93;;;14.40;33.10;;;;;;5037158;28;20487;-57
2022/04/16 13:04:26;;;;;;;1.30;1.00;;;14.50;32.90;;;;;;5037151;28;20468;-57
2022/04/16 13:06:53;;;;;;;1.90;1.80;;;14.60;32.10;;;;;;5036905;28;20452;-57
2022/04/16 13:09:20;;;;;;;3.50;2.10;;;14.60;31.10;;;;;;5037655;28;20456;-57
2022/04/16 13:11:50;;;;;;;6.73;4.57;;;14.50;30.60;;;;;;5037098;28;20897;-57
2022/04/16 13:14:17;;;;;;;1.53;1.40;;;14.30;30.30;;;;;;5036943;28;20472;-57
2022/04/16 13:16:45;;;;;;;2.13;1.00;;;14.20;30.40;;;;;;5036832;28;20456;-57
2022/04/16 13:19:12;;;;;;;1.10;0.83;;;14.20;30.90;;;;;;5037186;28;20452;-58
2022/04/16 13:21:41;;;;;;;2.00;1.33;;;14.30;30.60;;;;;;5037036;28;20469;-57
2022/04/16 13:24:11;;;;;;;1.23;1.07;;;14.30;30.00;;;;;;5036616;28;20468;-57